sensor_id;sensor_type;location;lat;lon;timestamp;temperature;humidity
13231;DHT22;6681;53.254;10.398;2022-07-29T00:01:47;16.00;99.90
13231;DHT22;6681;53.254;10.398;2022-07-29T00:04:13;16.00;99.90
13231;DHT22;6681;53.254;10.398;2022-07-29T00:06:39;16.10;99.90
13231;DHT22;6681;53.254;10.398;2022-07-29T00:09:05;16.10;99.90
13231;DHT22;6681;53.254;10.398;2022-07-29T00:11:31;16.10;99.90
13231;DHT22;6681;53.254;10.398;2022-07-29T00:13:57;16.10;99.90
13231;DHT22;6681;53.254;10.398;2022-07-29T00:16:22;16.00;99.90
13231;DHT22;6681;53.254;10.398;2022-07-29T00:18:48;16.00;99.90
13231;DHT22;6681;53.254;10.398;2022-07-29T00:21:14;16.10;99.90
13231;DHT22;6681;53.254;10.398;2022-07-29T00:23:40;16.10;99.90
13231;DHT22;6681;53.254;10.398;2022-07-29T00:26:05;16.10;99.90
13231;DHT22;6681;53.254;10.398;2022-07-29T00:28:31;16.10;99.90
13231;DHT22;6681;53.254;10.398;2022-07-29T00:30:57;16.00;99.90
13231;DHT22;6681;53.254;10.398;2022-07-29T00:33:22;15.90;99.90
13231;DHT22;6681;53.254;10.398;2022-07-29T00:35:48;15.90;99.90
13231;DHT22;6681;53.254;10.398;2022-07-29T00:38:16;15.80;99.90
13231;DHT22;6681;53.254;10.398;2022-07-29T00:40:42;15.80;99.90
13231;DHT22;6681;53.254;10.398;2022-07-29T00:43:08;15.60;99.90
13231;DHT22;6681;53.254;10.398;2022-07-29T00:45:34;15.70;99.90
13231;DHT22;6681;53.254;10.398;2022-07-29T00:48:00;15.70;99.90
13231;DHT22;6681;53.254;10.398;2022-07-29T00:50:26;15.60;99.90
13231;DHT22;6681;53.254;10.398;2022-07-29T00:52:52;15.60;99.90
13231;DHT22;6681;53.254;10.398;2022-07-29T00:55:18;15.70;99.90
13231;DHT22;6681;53.254;10.398;2022-07-29T00:57:44;15.70;99.90
13231;DHT22;6681;53.254;10.398;2022-07-29T01:00:22;15.60;99.90
13231;DHT22;6681;53.254;10.398;2022-07-29T01:02:49;15.40;99.90
13231;DHT22;6681;53.254;10.398;2022-07-29T01:05:19;15.30;99.90
13231;DHT22;6681;53.254;10.398;2022-07-29T01:07:46;15.30;99.90
13231;DHT22;6681;53.254;10.398;2022-07-29T01:10:13;15.30;99.90
13231;DHT22;6681;53.254;10.398;2022-07-29T01:12:40;15.30;99.90
13231;DHT22;6681;53.254;10.398;2022-07-29T01:15:07;15.30;99.90
13231;DHT22;6681;53.254;10.398;2022-07-29T01:17:55;15.20;99.90
13231;DHT22;6681;53.254;10.398;2022-07-29T01:25:45;15.20;99.90
13231;DHT22;6681;53.254;10.398;2022-07-29T01:28:17;15.20;99.90
13231;DHT22;6681;53.254;10.398;2022-07-29T01:30:50;15.10;99.90
13231;DHT22;6681;53.254;10.398;2022-07-29T01:33:17;15.10;99.90
13231;DHT22;6681;53.254;10.398;2022-07-29T01:36:10;14.90;99.90
13231;DHT22;6681;53.254;10.398;2022-07-29T01:38:39;14.80;99.90
13231;DHT22;6681;53.254;10.398;2022-07-29T01:41:09;14.70;99.90
13231;DHT22;6681;53.254;10.398;2022-07-29T01:43:57;14.70;99.90
13231;DHT22;6681;53.254;10.398;2022-07-29T01:46:29;14.70;99.90
13231;DHT22;6681;53.254;10.398;2022-07-29T01:49:02;14.70;99.90
13231;DHT22;6681;53.254;10.398;2022-07-29T01:51:35;14.60;99.90
13231;DHT22;6681;53.254;10.398;2022-07-29T01:54:25;14.60;99.90
13231;DHT22;6681;53.254;10.398;2022-07-29T01:56:55;14.50;99.90
13231;DHT22;6681;53.254;10.398;2022-07-29T01:59:21;14.50;99.90
13231;DHT22;6681;53.254;10.398;2022-07-29T02:01:50;14.50;99.90
13231;DHT22;6681;53.254;10.398;2022-07-29T02:04:19;14.60;99.90
13231;DHT22;6681;53.254;10.398;2022-07-29T02:06:48;15.00;99.90
13231;DHT22;6681;53.254;10.398;2022-07-29T02:09:15;14.70;99.90
13231;DHT22;6681;53.254;10.398;2022-07-29T02:11:45;14.60;99.90
13231;DHT22;6681;53.254;10.398;2022-07-29T02:14:14;14.70;99.90
13231;DHT22;6681;53.254;10.398;2022-07-29T02:16:41;14.60;99.90
13231;DHT22;6681;53.254;10.398;2022-07-29T02:19:07;14.60;99.90
13231;DHT22;6681;53.254;10.398;2022-07-29T02:21:35;14.50;99.90
13231;DHT22;6681;53.254;10.398;2022-07-29T02:24:02;14.60;99.90
13231;DHT22;6681;53.254;10.398;2022-07-29T02:26:30;14.60;99.90
13231;DHT22;6681;53.254;10.398;2022-07-29T02:28:59;14.60;99.90
13231;DHT22;6681;53.254;10.398;2022-07-29T02:31:30;14.60;99.90
13231;DHT22;6681;53.254;10.398;2022-07-29T02:33:59;14.70;99.90
13231;DHT22;6681;53.254;10.398;2022-07-29T02:36:26;14.60;99.90
13231;DHT22;6681;53.254;10.398;2022-07-29T02:38:53;14.60;99.90
13231;DHT22;6681;53.254;10.398;2022-07-29T02:41:45;14.70;99.90
13231;DHT22;6681;53.254;10.398;2022-07-29T02:44:20;14.70;99.90
13231;DHT22;6681;53.254;10.398;2022-07-29T02:47:09;14.60;99.90
13231;DHT22;6681;53.254;10.398;2022-07-29T02:52:52;14.70;99.90
13231;DHT22;6681;53.254;10.398;2022-07-29T02:56:14;14.60;99.90
13231;DHT22;6681;53.254;10.398;2022-07-29T02:58:28;14.60;99.90
13231;DHT22;6681;53.254;10.398;2022-07-29T03:01:01;14.60;99.90
13231;DHT22;6681;53.254;10.398;2022-07-29T03:03:31;14.90;99.90
13231;DHT22;6681;53.254;10.398;2022-07-29T03:06:00;14.60;99.90
13231;DHT22;6681;53.254;10.398;2022-07-29T03:08:26;14.80;99.90
13231;DHT22;6681;53.254;10.398;2022-07-29T03:10:53;14.60;99.90
13231;DHT22;6681;53.254;10.398;2022-07-29T03:13:19;14.70;99.90
13231;DHT22;6681;53.254;10.398;2022-07-29T03:15:46;14.70;99.90
13231;DHT22;6681;53.254;10.398;2022-07-29T03:18:13;14.90;99.90
13231;DHT22;6681;53.254;10.398;2022-07-29T03:20:39;14.50;99.90
13231;DHT22;6681;53.254;10.398;2022-07-29T03:23:06;14.50;99.90
13231;DHT22;6681;53.254;10.398;2022-07-29T03:25:31;14.50;99.90
13231;DHT22;6681;53.254;10.398;2022-07-29T03:27:57;14.50;99.90
13231;DHT22;6681;53.254;10.398;2022-07-29T03:30:23;14.40;99.90
13231;DHT22;6681;53.254;10.398;2022-07-29T03:32:50;14.40;99.90
13231;DHT22;6681;53.254;10.398;2022-07-29T03:35:15;14.50;99.90
13231;DHT22;6681;53.254;10.398;2022-07-29T03:37:45;14.60;99.90
13231;DHT22;6681;53.254;10.398;2022-07-29T03:40:18;14.50;99.90
13231;DHT22;6681;53.254;10.398;2022-07-29T03:42:45;14.60;99.90
13231;DHT22;6681;53.254;10.398;2022-07-29T03:45:16;14.50;99.90
13231;DHT22;6681;53.254;10.398;2022-07-29T03:47:47;14.50;99.90
13231;DHT22;6681;53.254;10.398;2022-07-29T03:50:14;14.60;99.90
13231;DHT22;6681;53.254;10.398;2022-07-29T03:52:40;14.70;99.90
13231;DHT22;6681;53.254;10.398;2022-07-29T03:55:07;14.60;99.90
13231;DHT22;6681;53.254;10.398;2022-07-29T03:57:34;14.60;99.90
13231;DHT22;6681;53.254;10.398;2022-07-29T04:00:02;14.60;99.90
13231;DHT22;6681;53.254;10.398;2022-07-29T04:02:29;14.60;99.90
13231;DHT22;6681;53.254;10.398;2022-07-29T04:04:56;14.70;99.90
13231;DHT22;6681;53.254;10.398;2022-07-29T04:07:21;14.70;99.90
13231;DHT22;6681;53.254;10.398;2022-07-29T04:09:47;14.70;99.90
13231;DHT22;6681;53.254;10.398;2022-07-29T04:12:12;14.60;99.90
13231;DHT22;6681;53.254;10.398;2022-07-29T04:14:38;14.60;99.90
13231;DHT22;6681;53.254;10.398;2022-07-29T04:17:04;14.50;99.90
13231;DHT22;6681;53.254;10.398;2022-07-29T04:19:31;14.50;99.90
13231;DHT22;6681;53.254;10.398;2022-07-29T04:21:58;14.50;99.90
13231;DHT22;6681;53.254;10.398;2022-07-29T04:24:24;14.50;99.90
13231;DHT22;6681;53.254;10.398;2022-07-29T04:26:50;14.60;99.90
13231;DHT22;6681;53.254;10.398;2022-07-29T04:29:16;14.50;99.90
13231;DHT22;6681;53.254;10.398;2022-07-29T04:31:42;14.50;99.90
13231;DHT22;6681;53.254;10.398;2022-07-29T04:34:07;14.50;99.90
13231;DHT22;6681;53.254;10.398;2022-07-29T04:36:34;14.50;99.90
13231;DHT22;6681;53.254;10.398;2022-07-29T04:39:00;14.50;99.90
13231;DHT22;6681;53.254;10.398;2022-07-29T04:41:27;14.60;99.90
13231;DHT22;6681;53.254;10.398;2022-07-29T04:43:53;14.60;99.90
13231;DHT22;6681;53.254;10.398;2022-07-29T04:46:18;14.60;99.90
13231;DHT22;6681;53.254;10.398;2022-07-29T04:48:47;14.60;99.90
13231;DHT22;6681;53.254;10.398;2022-07-29T04:51:14;14.60;99.90
13231;DHT22;6681;53.254;10.398;2022-07-29T04:53:40;14.60;99.90
13231;DHT22;6681;53.254;10.398;2022-07-29T04:56:05;14.70;99.90
13231;DHT22;6681;53.254;10.398;2022-07-29T04:58:31;14.70;99.90
13231;DHT22;6681;53.254;10.398;2022-07-29T05:00:56;14.70;99.90
13231;DHT22;6681;53.254;10.398;2022-07-29T05:03:22;14.70;99.90
13231;DHT22;6681;53.254;10.398;2022-07-29T05:05:48;14.80;99.90
13231;DHT22;6681;53.254;10.398;2022-07-29T05:08:13;14.80;99.90
13231;DHT22;6681;53.254;10.398;2022-07-29T05:10:39;14.90;99.90
13231;DHT22;6681;53.254;10.398;2022-07-29T05:13:06;15.00;99.90
13231;DHT22;6681;53.254;10.398;2022-07-29T05:15:33;14.80;99.90
13231;DHT22;6681;53.254;10.398;2022-07-29T05:17:59;14.90;99.90
13231;DHT22;6681;53.254;10.398;2022-07-29T05:20:24;15.00;99.90
13231;DHT22;6681;53.254;10.398;2022-07-29T05:22:57;15.10;99.90
13231;DHT22;6681;53.254;10.398;2022-07-29T05:25:23;15.00;99.90
13231;DHT22;6681;53.254;10.398;2022-07-29T05:27:49;15.00;99.90
13231;DHT22;6681;53.254;10.398;2022-07-29T05:30:15;15.00;99.90
13231;DHT22;6681;53.254;10.398;2022-07-29T05:32:41;15.00;99.90
13231;DHT22;6681;53.254;10.398;2022-07-29T05:35:07;15.10;99.90
13231;DHT22;6681;53.254;10.398;2022-07-29T05:37:33;15.10;99.90
13231;DHT22;6681;53.254;10.398;2022-07-29T05:39:59;15.10;99.90
13231;DHT22;6681;53.254;10.398;2022-07-29T05:42:25;15.10;99.90
13231;DHT22;6681;53.254;10.398;2022-07-29T05:44:52;15.10;99.90
13231;DHT22;6681;53.254;10.398;2022-07-29T05:47:18;15.10;99.90
13231;DHT22;6681;53.254;10.398;2022-07-29T05:49:44;15.10;99.90
13231;DHT22;6681;53.254;10.398;2022-07-29T05:52:09;15.20;99.90
13231;DHT22;6681;53.254;10.398;2022-07-29T05:54:35;15.30;99.90
13231;DHT22;6681;53.254;10.398;2022-07-29T05:57:01;15.30;99.90
13231;DHT22;6681;53.254;10.398;2022-07-29T05:59:27;15.40;99.90
13231;DHT22;6681;53.254;10.398;2022-07-29T06:01:52;15.40;99.90
13231;DHT22;6681;53.254;10.398;2022-07-29T06:04:19;15.40;99.90
13231;DHT22;6681;53.254;10.398;2022-07-29T06:06:44;15.40;99.90
13231;DHT22;6681;53.254;10.398;2022-07-29T06:09:10;15.40;99.90
13231;DHT22;6681;53.254;10.398;2022-07-29T06:11:36;15.50;99.90
13231;DHT22;6681;53.254;10.398;2022-07-29T06:14:02;15.50;99.90
13231;DHT22;6681;53.254;10.398;2022-07-29T06:16:29;15.50;99.90
13231;DHT22;6681;53.254;10.398;2022-07-29T06:18:54;15.60;99.90
13231;DHT22;6681;53.254;10.398;2022-07-29T06:21:20;15.60;99.90
13231;DHT22;6681;53.254;10.398;2022-07-29T06:23:45;15.70;99.90
13231;DHT22;6681;53.254;10.398;2022-07-29T06:26:11;15.70;99.90
13231;DHT22;6681;53.254;10.398;2022-07-29T06:28:37;15.80;99.90
13231;DHT22;6681;53.254;10.398;2022-07-29T06:31:02;15.80;99.90
13231;DHT22;6681;53.254;10.398;2022-07-29T06:33:28;15.80;99.90
13231;DHT22;6681;53.254;10.398;2022-07-29T06:35:54;15.90;99.90
13231;DHT22;6681;53.254;10.398;2022-07-29T06:38:20;16.00;99.90
13231;DHT22;6681;53.254;10.398;2022-07-29T06:40:46;16.00;99.90
13231;DHT22;6681;53.254;10.398;2022-07-29T06:43:40;16.00;99.90
13231;DHT22;6681;53.254;10.398;2022-07-29T06:46:11;16.10;99.90
13231;DHT22;6681;53.254;10.398;2022-07-29T06:48:38;16.10;99.90
13231;DHT22;6681;53.254;10.398;2022-07-29T06:51:04;16.40;99.90
13231;DHT22;6681;53.254;10.398;2022-07-29T06:53:31;16.10;99.90
13231;DHT22;6681;53.254;10.398;2022-07-29T06:55:58;16.10;99.90
13231;DHT22;6681;53.254;10.398;2022-07-29T06:58:25;16.20;99.90
13231;DHT22;6681;53.254;10.398;2022-07-29T07:00:51;16.20;99.90
13231;DHT22;6681;53.254;10.398;2022-07-29T07:03:17;16.30;99.90
13231;DHT22;6681;53.254;10.398;2022-07-29T07:05:43;16.40;99.90
13231;DHT22;6681;53.254;10.398;2022-07-29T07:08:09;16.50;99.90
13231;DHT22;6681;53.254;10.398;2022-07-29T07:10:35;16.50;99.90
13231;DHT22;6681;53.254;10.398;2022-07-29T07:13:01;16.50;99.90
13231;DHT22;6681;53.254;10.398;2022-07-29T07:15:27;16.60;99.90
13231;DHT22;6681;53.254;10.398;2022-07-29T07:17:53;16.70;99.90
13231;DHT22;6681;53.254;10.398;2022-07-29T07:20:19;16.70;99.90
13231;DHT22;6681;53.254;10.398;2022-07-29T07:22:44;16.70;99.90
13231;DHT22;6681;53.254;10.398;2022-07-29T07:25:12;16.70;99.90
13231;DHT22;6681;53.254;10.398;2022-07-29T07:27:38;16.80;99.90
13231;DHT22;6681;53.254;10.398;2022-07-29T07:30:05;16.80;99.90
13231;DHT22;6681;53.254;10.398;2022-07-29T07:32:32;16.90;99.90
13231;DHT22;6681;53.254;10.398;2022-07-29T07:34:58;17.00;99.90
13231;DHT22;6681;53.254;10.398;2022-07-29T07:37:24;17.10;99.90
13231;DHT22;6681;53.254;10.398;2022-07-29T07:39:51;17.20;99.90
13231;DHT22;6681;53.254;10.398;2022-07-29T07:42:17;17.30;99.90
13231;DHT22;6681;53.254;10.398;2022-07-29T07:44:42;17.40;99.90
13231;DHT22;6681;53.254;10.398;2022-07-29T07:47:08;17.50;99.90
13231;DHT22;6681;53.254;10.398;2022-07-29T07:49:34;17.60;99.90
13231;DHT22;6681;53.254;10.398;2022-07-29T07:51:59;17.70;99.90
13231;DHT22;6681;53.254;10.398;2022-07-29T07:54:25;17.80;99.90
13231;DHT22;6681;53.254;10.398;2022-07-29T07:56:51;17.90;99.90
13231;DHT22;6681;53.254;10.398;2022-07-29T07:59:16;18.20;99.90
13231;DHT22;6681;53.254;10.398;2022-07-29T08:01:42;18.00;99.90
13231;DHT22;6681;53.254;10.398;2022-07-29T08:04:08;18.10;99.90
13231;DHT22;6681;53.254;10.398;2022-07-29T08:06:34;20.00;99.90
13231;DHT22;6681;53.254;10.398;2022-07-29T08:09:02;18.20;99.90
13231;DHT22;6681;53.254;10.398;2022-07-29T08:11:28;18.30;99.90
13231;DHT22;6681;53.254;10.398;2022-07-29T08:13:54;18.30;99.90
13231;DHT22;6681;53.254;10.398;2022-07-29T08:16:20;18.40;99.90
13231;DHT22;6681;53.254;10.398;2022-07-29T08:18:46;18.60;99.90
13231;DHT22;6681;53.254;10.398;2022-07-29T08:21:13;18.70;99.90
13231;DHT22;6681;53.254;10.398;2022-07-29T08:23:39;18.80;99.90
13231;DHT22;6681;53.254;10.398;2022-07-29T08:26:11;18.90;99.90
13231;DHT22;6681;53.254;10.398;2022-07-29T08:28:37;19.00;99.90
13231;DHT22;6681;53.254;10.398;2022-07-29T08:31:03;19.10;99.90
13231;DHT22;6681;53.254;10.398;2022-07-29T08:33:29;19.30;99.90
13231;DHT22;6681;53.254;10.398;2022-07-29T08:35:54;19.40;99.90
13231;DHT22;6681;53.254;10.398;2022-07-29T08:38:20;19.60;99.90
13231;DHT22;6681;53.254;10.398;2022-07-29T08:40:46;19.70;99.90
13231;DHT22;6681;53.254;10.398;2022-07-29T08:43:11;19.80;99.90
13231;DHT22;6681;53.254;10.398;2022-07-29T08:45:46;19.90;99.90
13231;DHT22;6681;53.254;10.398;2022-07-29T08:48:12;20.00;99.90
13231;DHT22;6681;53.254;10.398;2022-07-29T08:50:39;20.10;99.90
13231;DHT22;6681;53.254;10.398;2022-07-29T08:53:09;20.30;99.90
13231;DHT22;6681;53.254;10.398;2022-07-29T08:55:38;20.50;99.90
13231;DHT22;6681;53.254;10.398;2022-07-29T08:58:04;20.60;99.90
13231;DHT22;6681;53.254;10.398;2022-07-29T09:00:31;20.70;99.90
13231;DHT22;6681;53.254;10.398;2022-07-29T09:02:57;20.90;99.90
13231;DHT22;6681;53.254;10.398;2022-07-29T09:05:26;21.00;99.90
13231;DHT22;6681;53.254;10.398;2022-07-29T09:07:52;21.30;99.90
13231;DHT22;6681;53.254;10.398;2022-07-29T09:10:18;21.40;99.90
13231;DHT22;6681;53.254;10.398;2022-07-29T09:12:43;21.60;99.90
13231;DHT22;6681;53.254;10.398;2022-07-29T09:15:09;21.80;99.90
13231;DHT22;6681;53.254;10.398;2022-07-29T09:17:49;22.00;99.90
13231;DHT22;6681;53.254;10.398;2022-07-29T09:20:17;22.10;99.90
13231;DHT22;6681;53.254;10.398;2022-07-29T09:22:42;22.20;99.90
13231;DHT22;6681;53.254;10.398;2022-07-29T09:25:10;22.40;99.90
13231;DHT22;6681;53.254;10.398;2022-07-29T09:27:36;22.50;99.90
13231;DHT22;6681;53.254;10.398;2022-07-29T09:30:03;22.60;99.90
13231;DHT22;6681;53.254;10.398;2022-07-29T09:32:30;22.70;99.90
13231;DHT22;6681;53.254;10.398;2022-07-29T09:35:22;22.80;99.90
13231;DHT22;6681;53.254;10.398;2022-07-29T09:37:48;22.90;99.90
13231;DHT22;6681;53.254;10.398;2022-07-29T09:40:22;23.00;99.90
13231;DHT22;6681;53.254;10.398;2022-07-29T09:42:49;23.00;99.90
13231;DHT22;6681;53.254;10.398;2022-07-29T09:45:33;23.10;99.90
13231;DHT22;6681;53.254;10.398;2022-07-29T09:47:59;23.20;99.90
13231;DHT22;6681;53.254;10.398;2022-07-29T09:50:42;23.30;99.90
13231;DHT22;6681;53.254;10.398;2022-07-29T09:53:09;23.30;99.90
13231;DHT22;6681;53.254;10.398;2022-07-29T09:58:17;23.40;99.90
13231;DHT22;6681;53.254;10.398;2022-07-29T10:00:44;23.50;99.90
13231;DHT22;6681;53.254;10.398;2022-07-29T10:03:11;26.00;99.90
13231;DHT22;6681;53.254;10.398;2022-07-29T10:05:37;23.60;99.90
13231;DHT22;6681;53.254;10.398;2022-07-29T10:08:04;23.70;99.90
13231;DHT22;6681;53.254;10.398;2022-07-29T10:10:32;23.80;99.90
13231;DHT22;6681;53.254;10.398;2022-07-29T10:13:12;23.80;99.90
13231;DHT22;6681;53.254;10.398;2022-07-29T10:15:40;23.90;99.90
13231;DHT22;6681;53.254;10.398;2022-07-29T10:18:09;24.00;99.90
13231;DHT22;6681;53.254;10.398;2022-07-29T10:20:35;24.10;99.90
13231;DHT22;6681;53.254;10.398;2022-07-29T10:23:01;24.20;99.90
13231;DHT22;6681;53.254;10.398;2022-07-29T10:25:27;24.30;99.90
13231;DHT22;6681;53.254;10.398;2022-07-29T10:27:53;24.30;99.90
13231;DHT22;6681;53.254;10.398;2022-07-29T10:30:22;24.40;99.90
13231;DHT22;6681;53.254;10.398;2022-07-29T10:36:00;24.70;99.90
13231;DHT22;6681;53.254;10.398;2022-07-29T10:38:42;24.70;99.90
13231;DHT22;6681;53.254;10.398;2022-07-29T10:44:02;25.00;99.90
13231;DHT22;6681;53.254;10.398;2022-07-29T10:46:37;24.90;98.50
13231;DHT22;6681;53.254;10.398;2022-07-29T10:49:16;25.00;99.80
13231;DHT22;6681;53.254;10.398;2022-07-29T10:54:36;25.00;97.80
13231;DHT22;6681;53.254;10.398;2022-07-29T10:57:17;25.00;97.10
13231;DHT22;6681;53.254;10.398;2022-07-29T11:00:31;25.00;96.40
13231;DHT22;6681;53.254;10.398;2022-07-29T11:05:03;25.10;95.80
13231;DHT22;6681;53.254;10.398;2022-07-29T11:07:30;23.00;94.50
13231;DHT22;6681;53.254;10.398;2022-07-29T11:15:11;25.40;96.90
13231;DHT22;6681;53.254;10.398;2022-07-29T11:23:29;25.40;92.80
13231;DHT22;6681;53.254;10.398;2022-07-29T11:26:17;25.30;95.20
13231;DHT22;6681;53.254;10.398;2022-07-29T11:31:36;25.30;93.00
13231;DHT22;6681;53.254;10.398;2022-07-29T11:39:36;25.30;92.70
13231;DHT22;6681;53.254;10.398;2022-07-29T11:50:04;25.40;92.50
13231;DHT22;6681;53.254;10.398;2022-07-29T11:52:38;25.40;93.20
13231;DHT22;6681;53.254;10.398;2022-07-29T11:55:10;25.40;92.20
13231;DHT22;6681;53.254;10.398;2022-07-29T11:57:45;25.50;92.40
13231;DHT22;6681;53.254;10.398;2022-07-29T12:00:11;25.40;92.90
13231;DHT22;6681;53.254;10.398;2022-07-29T12:02:41;25.50;92.30
13231;DHT22;6681;53.254;10.398;2022-07-29T12:05:08;25.50;91.90
13231;DHT22;6681;53.254;10.398;2022-07-29T12:07:34;25.50;92.00
13231;DHT22;6681;53.254;10.398;2022-07-29T12:10:01;25.50;92.70
13231;DHT22;6681;53.254;10.398;2022-07-29T12:12:26;25.60;91.80
13231;DHT22;6681;53.254;10.398;2022-07-29T12:14:52;25.60;92.20
13231;DHT22;6681;53.254;10.398;2022-07-29T12:19:55;25.90;91.10
13231;DHT22;6681;53.254;10.398;2022-07-29T12:22:32;25.80;92.00
13231;DHT22;6681;53.254;10.398;2022-07-29T12:25:12;25.90;91.50
13231;DHT22;6681;53.254;10.398;2022-07-29T12:27:41;26.00;91.50
13231;DHT22;6681;53.254;10.398;2022-07-29T12:30:14;26.10;92.20
13231;DHT22;6681;53.254;10.398;2022-07-29T12:32:46;26.20;91.00
13231;DHT22;6681;53.254;10.398;2022-07-29T12:35:14;26.30;90.50
13231;DHT22;6681;53.254;10.398;2022-07-29T12:37:42;26.40;91.20
13231;DHT22;6681;53.254;10.398;2022-07-29T12:40:10;26.50;91.80
13231;DHT22;6681;53.254;10.398;2022-07-29T12:42:36;26.70;90.50
13231;DHT22;6681;53.254;10.398;2022-07-29T12:45:03;26.80;90.10
13231;DHT22;6681;53.254;10.398;2022-07-29T12:47:30;25.90;88.30
13231;DHT22;6681;53.254;10.398;2022-07-29T12:50:10;27.00;87.90
13231;DHT22;6681;53.254;10.398;2022-07-29T12:52:36;27.30;89.80
13231;DHT22;6681;53.254;10.398;2022-07-29T12:55:03;27.70;90.00
13231;DHT22;6681;53.254;10.398;2022-07-29T12:57:29;27.90;86.30
13231;DHT22;6681;53.254;10.398;2022-07-29T13:00:14;28.20;88.70
13231;DHT22;6681;53.254;10.398;2022-07-29T13:02:41;28.30;88.20
13231;DHT22;6681;53.254;10.398;2022-07-29T13:05:09;28.30;84.10
13231;DHT22;6681;53.254;10.398;2022-07-29T13:07:36;28.50;84.80
13231;DHT22;6681;53.254;10.398;2022-07-29T13:10:17;28.70;83.80
13231;DHT22;6681;53.254;10.398;2022-07-29T13:15:27;29.10;84.10
13231;DHT22;6681;53.254;10.398;2022-07-29T13:17:53;29.10;82.40
13231;DHT22;6681;53.254;10.398;2022-07-29T13:20:18;29.30;83.30
13231;DHT22;6681;53.254;10.398;2022-07-29T13:22:48;29.40;78.70
13231;DHT22;6681;53.254;10.398;2022-07-29T13:25:14;29.60;81.40
13231;DHT22;6681;53.254;10.398;2022-07-29T13:27:39;29.70;80.20
13231;DHT22;6681;53.254;10.398;2022-07-29T13:30:07;30.10;76.80
13231;DHT22;6681;53.254;10.398;2022-07-29T13:32:34;30.30;78.00
13231;DHT22;6681;53.254;10.398;2022-07-29T13:35:03;30.20;74.60
13231;DHT22;6681;53.254;10.398;2022-07-29T13:37:29;30.20;76.30
13231;DHT22;6681;53.254;10.398;2022-07-29T13:39:56;30.30;73.80
13231;DHT22;6681;53.254;10.398;2022-07-29T13:42:23;30.20;74.90
13231;DHT22;6681;53.254;10.398;2022-07-29T13:44:48;30.50;74.40
13231;DHT22;6681;53.254;10.398;2022-07-29T13:47:16;30.80;72.40
13231;DHT22;6681;53.254;10.398;2022-07-29T13:49:42;30.70;70.30
13231;DHT22;6681;53.254;10.398;2022-07-29T13:52:07;31.00;73.70
13231;DHT22;6681;53.254;10.398;2022-07-29T13:54:33;31.20;71.10
13231;DHT22;6681;53.254;10.398;2022-07-29T13:57:03;31.20;71.00
13231;DHT22;6681;53.254;10.398;2022-07-29T13:59:28;31.00;66.10
13231;DHT22;6681;53.254;10.398;2022-07-29T14:01:54;30.90;69.40
13231;DHT22;6681;53.254;10.398;2022-07-29T14:04:19;31.40;68.00
13231;DHT22;6681;53.254;10.398;2022-07-29T14:06:45;31.30;68.30
13231;DHT22;6681;53.254;10.398;2022-07-29T14:09:10;31.40;66.60
13231;DHT22;6681;53.254;10.398;2022-07-29T14:11:36;31.30;66.20
13231;DHT22;6681;53.254;10.398;2022-07-29T14:14:03;31.20;67.60
13231;DHT22;6681;53.254;10.398;2022-07-29T14:16:29;30.90;65.30
13231;DHT22;6681;53.254;10.398;2022-07-29T14:18:55;30.80;65.30
13231;DHT22;6681;53.254;10.398;2022-07-29T14:21:20;30.50;65.20
13231;DHT22;6681;53.254;10.398;2022-07-29T14:23:46;30.30;65.90
13231;DHT22;6681;53.254;10.398;2022-07-29T14:26:11;30.30;63.40
13231;DHT22;6681;53.254;10.398;2022-07-29T14:28:37;30.50;66.30
13231;DHT22;6681;53.254;10.398;2022-07-29T14:31:03;30.90;64.60
13231;DHT22;6681;53.254;10.398;2022-07-29T14:33:28;29.60;63.00
13231;DHT22;6681;53.254;10.398;2022-07-29T14:35:54;31.10;65.30
13231;DHT22;6681;53.254;10.398;2022-07-29T14:38:20;31.40;67.80
13231;DHT22;6681;53.254;10.398;2022-07-29T14:40:45;31.70;64.00
13231;DHT22;6681;53.254;10.398;2022-07-29T14:43:12;31.40;61.60
13231;DHT22;6681;53.254;10.398;2022-07-29T14:45:39;31.60;65.40
13231;DHT22;6681;53.254;10.398;2022-07-29T14:48:05;32.20;65.10
13231;DHT22;6681;53.254;10.398;2022-07-29T14:50:31;32.40;62.60
13231;DHT22;6681;53.254;10.398;2022-07-29T14:52:57;32.20;59.50
13231;DHT22;6681;53.254;10.398;2022-07-29T14:55:22;32.10;62.90
13231;DHT22;6681;53.254;10.398;2022-07-29T14:57:48;32.10;60.90
13231;DHT22;6681;53.254;10.398;2022-07-29T15:00:16;32.10;58.90
13231;DHT22;6681;53.254;10.398;2022-07-29T15:02:42;32.10;63.20
13231;DHT22;6681;53.254;10.398;2022-07-29T15:05:08;31.80;58.60
13231;DHT22;6681;53.254;10.398;2022-07-29T15:07:34;31.40;59.20
13231;DHT22;6681;53.254;10.398;2022-07-29T15:09:59;31.60;62.30
13231;DHT22;6681;53.254;10.398;2022-07-29T15:12:25;31.80;59.30
13231;DHT22;6681;53.254;10.398;2022-07-29T15:14:50;32.00;62.00
13231;DHT22;6681;53.254;10.398;2022-07-29T15:17:16;32.00;59.10
13231;DHT22;6681;53.254;10.398;2022-07-29T15:19:42;31.80;57.90
13231;DHT22;6681;53.254;10.398;2022-07-29T15:22:07;31.60;57.90
13231;DHT22;6681;53.254;10.398;2022-07-29T15:24:33;31.40;56.70
13231;DHT22;6681;53.254;10.398;2022-07-29T15:26:59;30.90;58.70
13231;DHT22;6681;53.254;10.398;2022-07-29T15:29:25;30.60;59.90
13231;DHT22;6681;53.254;10.398;2022-07-29T15:31:50;30.30;62.40
13231;DHT22;6681;53.254;10.398;2022-07-29T15:34:16;30.10;62.10
13231;DHT22;6681;53.254;10.398;2022-07-29T15:36:42;29.70;60.10
13231;DHT22;6681;53.254;10.398;2022-07-29T15:39:07;29.30;61.50
13231;DHT22;6681;53.254;10.398;2022-07-29T15:41:34;29.20;62.00
13231;DHT22;6681;53.254;10.398;2022-07-29T15:44:00;29.30;62.10
13231;DHT22;6681;53.254;10.398;2022-07-29T15:46:25;29.20;61.00
13231;DHT22;6681;53.254;10.398;2022-07-29T15:49:09;29.20;62.60
13231;DHT22;6681;53.254;10.398;2022-07-29T15:51:35;29.60;66.50
13231;DHT22;6681;53.254;10.398;2022-07-29T15:54:03;29.90;64.90
13231;DHT22;6681;53.254;10.398;2022-07-29T15:56:29;30.20;62.10
13231;DHT22;6681;53.254;10.398;2022-07-29T15:58:55;30.10;60.20
13231;DHT22;6681;53.254;10.398;2022-07-29T16:01:20;30.10;67.30
13231;DHT22;6681;53.254;10.398;2022-07-29T16:03:46;29.90;71.60
13231;DHT22;6681;53.254;10.398;2022-07-29T16:06:12;29.80;73.60
13231;DHT22;6681;53.254;10.398;2022-07-29T16:08:37;29.70;75.00
13231;DHT22;6681;53.254;10.398;2022-07-29T16:11:03;29.50;74.40
13231;DHT22;6681;53.254;10.398;2022-07-29T16:13:28;29.30;76.10
13231;DHT22;6681;53.254;10.398;2022-07-29T16:15:54;29.10;77.10
13231;DHT22;6681;53.254;10.398;2022-07-29T16:18:20;28.70;78.60
13231;DHT22;6681;53.254;10.398;2022-07-29T16:20:45;28.50;80.50
13231;DHT22;6681;53.254;10.398;2022-07-29T16:23:11;28.40;80.60
13231;DHT22;6681;53.254;10.398;2022-07-29T16:25:41;28.20;80.10
13231;DHT22;6681;53.254;10.398;2022-07-29T16:28:07;28.10;80.60
13231;DHT22;6681;53.254;10.398;2022-07-29T16:30:34;28.10;81.50